Time;durP1;ratioP1;P1;durP2;ratioP2;P2;SDS_P1;SDS_P2;PMS_P1;PMS_P2;Temp;Humidity;BMP_temperature;BMP_pressure;BME280_temperature;BME280_humidity;BME280_pressure;Samples;Min_cycle;Max_cycle;Signal;HPM_P1;HPM_P2
2021/01/12 00:02:20;;;;;;;33.58;14.80;;;;;;;2.26;81.68;101705.84;1759259;81;21067;-59
2021/01/12 00:04:48;;;;;;;32.65;15.58;;;;;;;2.32;81.08;101698.86;1759435;81;21074;-57
2021/01/12 00:07:23;;;;;;;30.72;14.87;;;;;;;2.35;80.94;101692.31;1759465;81;21396;-58
2021/01/12 00:09:50;;;;;;;37.95;15.80;;;;;;;2.37;80.69;101689.25;1759588;81;21217;-57
2021/01/12 00:12:18;;;;;;;30.97;15.35;;;;;;;2.36;81.15;101698.06;1759476;81;21173;-58
2021/01/12 00:14:46;;;;;;;34.45;16.40;;;;;;;2.34;81.24;101682.14;1759473;81;21106;-58
2021/01/12 00:17:14;;;;;;;38.75;16.23;;;;;;;2.34;81.56;101675.52;1759528;81;21129;-59
2021/01/12 00:19:41;;;;;;;33.30;14.87;;;;;;;2.36;81.54;101680.86;1759378;81;21357;-58
2021/01/12 00:22:14;;;;;;;34.23;16.05;;;;;;;2.36;80.87;101681.73;1759443;81;20971;-59
2021/01/12 00:24:44;;;;;;;38.85;16.17;;;;;;;2.34;80.74;101680.81;1759414;81;21149;-58
2021/01/12 00:27:12;;;;;;;36.33;15.93;;;;;;;2.34;80.11;101673.33;1759406;81;21164;-59
2021/01/12 00:29:40;;;;;;;35.13;14.18;;;;;;;2.35;80.00;101679.08;1759390;81;21062;-58
2021/01/12 00:32:22;;;;;;;32.17;15.05;;;;;;;2.35;79.83;101680.40;1759456;81;21392;-58
2021/01/12 00:34:50;;;;;;;36.00;16.15;;;;;;;2.33;79.81;101699.34;1759335;81;21086;-58
2021/01/12 00:37:19;;;;;;;38.35;16.93;;;;;;;2.36;79.86;101696.28;1771265;80;21076;-58
2021/01/12 00:39:47;;;;;;;36.77;14.13;;;;;;;2.37;79.90;101695.41;1792293;80;21102;-59
2021/01/12 00:42:15;;;;;;;36.48;15.93;;;;;;;2.39;79.80;101686.19;1792504;80;21611;-58
2021/01/12 00:44:43;;;;;;;36.15;15.58;;;;;;;2.40;79.81;101672.08;1792302;80;21366;-59
2021/01/12 00:47:10;;;;;;;38.20;15.80;;;;;;;2.39;80.25;101665.88;1792284;80;21080;-57
2021/01/12 00:49:39;;;;;;;34.33;15.80;;;;;;;2.39;80.38;101671.63;1792324;80;21088;-58
2021/01/12 00:52:13;;;;;;;38.92;16.45;;;;;;;2.36;80.67;101670.27;1792303;80;21052;-58
2021/01/12 00:54:40;;;;;;;34.70;16.23;;;;;;;2.36;80.80;101655.71;1792556;80;21099;-58
2021/01/12 00:57:08;;;;;;;37.83;17.17;;;;;;;2.33;81.21;101656.55;1792308;80;21713;-57
2021/01/12 00:59:36;;;;;;;36.42;17.60;;;;;;;2.31;81.50;101664.00;1792355;80;21139;-58
2021/01/12 01:02:05;;;;;;;33.67;15.40;;;;;;;2.29;81.76;101656.05;1789275;80;21143;-58
2021/01/12 01:04:33;;;;;;;33.30;14.70;;;;;;;2.27;81.46;101658.66;1788163;80;20992;-58
2021/01/12 01:07:00;;;;;;;28.25;14.18;;;;;;;2.24;81.59;101650.69;1788156;80;21063;-57
2021/01/12 01:09:28;;;;;;;34.48;16.30;;;;;;;2.20;81.76;101642.25;1788213;80;21490;-58
2021/01/12 01:11:55;;;;;;;38.08;16.40;;;;;;;2.19;82.35;101654.13;1788103;79;21172;-58
2021/01/12 01:14:23;;;;;;;29.02;14.47;;;;;;;2.18;82.32;101636.06;1788037;80;21125;-58
2021/01/12 01:16:51;;;;;;;32.73;16.20;;;;;;;2.18;82.50;101634.73;1788185;80;21131;-58
2021/01/12 01:19:19;;;;;;;32.08;15.23;;;;;;;2.17;82.14;101630.31;1788087;80;21153;-58
2021/01/12 01:21:50;;;;;;;32.83;14.75;;;;;;;2.14;82.09;101626.30;1788202;80;21379;-58
2021/01/12 01:24:18;;;;;;;35.80;15.23;;;;;;;2.11;81.85;101634.20;1788073;80;21059;-57
2021/01/12 01:26:47;;;;;;;32.93;15.80;;;;;;;2.08;81.75;101631.48;1788255;80;20938;-58
2021/01/12 01:29:15;;;;;;;34.13;15.43;;;;;;;2.08;81.76;101622.22;1788073;80;21132;-58
2021/01/12 01:31:44;;;;;;;31.93;13.53;;;;;;;2.06;81.67;101625.28;1788250;80;21194;-58
2021/01/12 01:34:12;;;;;;;32.15;14.78;;;;;;;2.06;81.74;101622.64;1788147;80;21548;-57
2021/01/12 01:36:40;;;;;;;34.83;15.40;;;;;;;2.05;81.85;101633.67;1786312;80;21136;-58
2021/01/12 01:39:07;;;;;;;30.02;14.38;;;;;;;2.07;81.46;101625.32;1770551;81;21136;-57
2021/01/12 01:41:35;;;;;;;35.63;15.83;;;;;;;2.06;81.45;101610.73;1770458;81;21112;-58
2021/01/12 01:44:06;;;;;;;32.03;14.10;;;;;;;2.06;81.33;101622.64;1770491;81;21136;-57
2021/01/12 01:46:34;;;;;;;32.65;14.63;;;;;;;2.04;81.13;101625.70;1770432;81;21533;-58
2021/01/12 01:49:02;;;;;;;29.87;15.23;;;;;;;2.03;81.09;101606.73;1770470;81;21143;-57
2021/01/12 01:51:30;;;;;;;29.35;14.10;;;;;;;2.03;80.80;101615.98;1770424;81;21068;-57
2021/01/12 01:53:58;;;;;;;33.80;15.32;;;;;;;2.05;80.48;101626.16;1770487;81;21072;-57
2021/01/12 01:56:26;;;;;;;30.30;14.60;;;;;;;2.07;80.46;101613.41;1770472;81;21116;-58
2021/01/12 01:58:54;;;;;;;31.60;15.08;;;;;;;2.07;80.60;101599.28;1770539;81;21211;-57
2021/01/12 02:01:22;;;;;;;31.40;15.28;;;;;;;2.07;81.20;101585.64;1770246;81;21203;-58
2021/01/12 02:04:36;;;;;;;34.58;15.00;;;;;;;2.07;81.92;101578.12;1770505;81;21058;-57
2021/01/12 02:07:05;;;;;;;34.65;14.80;;;;;;;2.07;82.21;101595.31;1770584;81;21789;-57
2021/01/12 02:09:49;;;;;;;33.88;15.45;;;;;;;2.07;82.39;101578.12;1770509;81;21183;-58
2021/01/12 02:12:30;;;;;;;31.48;14.23;;;;;;;2.07;82.82;101575.47;1770528;81;21504;-59
2021/01/12 02:14:59;;;;;;;31.50;14.78;;;;;;;2.07;82.75;101588.70;1770495;81;21917;-56
2021/01/12 02:17:27;;;;;;;34.53;15.93;;;;;;;2.06;82.75;101587.83;1770490;81;21073;-57
2021/01/12 02:19:55;;;;;;;28.90;13.58;;;;;;;2.07;82.76;101572.83;1770469;81;21124;-58
2021/01/12 02:22:25;;;;;;;29.67;14.38;;;;;;;2.09;82.28;101575.96;1770436;81;21132;-58
2021/01/12 02:24:52;;;;;;;30.80;14.18;;;;;;;2.09;82.67;101554.80;1770516;81;21401;-58
2021/01/12 02:27:23;;;;;;;31.27;15.30;;;;;;;2.10;83.27;101575.51;1740647;81;21085;-58
2021/01/12 02:29:51;;;;;;;32.00;14.90;;;;;;;2.10;83.35;101571.54;1770507;81;21176;-58
2021/01/12 02:32:19;;;;;;;28.42;13.98;;;;;;;2.10;83.33;101563.61;1770420;81;21161;-58
2021/01/12 02:34:47;;;;;;;30.40;13.62;;;;;;;2.08;83.50;101555.67;1770592;81;21576;-58
2021/01/12 02:37:18;;;;;;;38.38;15.50;;;;;;;2.09;83.47;101568.44;1776447;80;21417;-58
2021/01/12 02:40:00;;;;;;;38.80;14.83;;;;;;;2.08;83.71;101557.41;1787967;80;21267;-59
2021/01/12 02:42:27;;;;;;;33.08;15.23;;;;;;;2.07;83.47;101578.12;1788107;80;21218;-58
2021/01/12 02:44:57;;;;;;;31.27;14.87;;;;;;;2.06;83.22;101585.19;1787960;80;21153;-59
2021/01/12 02:47:24;;;;;;;31.10;15.23;;;;;;;2.09;82.87;101589.19;1788133;80;21154;-57
2021/01/12 02:49:53;;;;;;;31.90;15.08;;;;;;;2.11;82.83;101583.48;1787993;80;21360;-58
2021/01/12 02:52:20;;;;;;;34.27;14.25;;;;;;;2.12;82.76;101583.06;1788163;80;21506;-57
2021/01/12 02:54:48;;;;;;;34.35;15.43;;;;;;;2.10;82.65;101575.09;1788087;80;21054;-58
2021/01/12 02:57:15;;;;;;;32.65;15.48;;;;;;;2.10;82.39;101573.77;1788198;80;21374;-57
2021/01/12 02:59:44;;;;;;;37.20;16.02;;;;;;;2.12;82.31;101561.89;1788011;80;21168;-58
2021/01/12 03:02:12;;;;;;;34.83;16.17;;;;;;;2.15;82.63;101564.58;1789652;80;21454;-58
2021/01/12 03:04:40;;;;;;;37.30;15.85;;;;;;;2.13;82.92;101563.22;1791302;80;21054;-58
2021/01/12 03:07:08;;;;;;;34.10;15.25;;;;;;;2.12;83.20;101552.19;1791430;80;21078;-57
2021/01/12 03:09:36;;;;;;;34.55;14.75;;;;;;;2.11;83.35;101557.48;1791534;80;21058;-58
2021/01/12 03:12:05;;;;;;;31.23;15.75;;;;;;;2.09;83.50;101565.80;1791574;80;21113;-57
2021/01/12 03:14:33;;;;;;;35.13;14.65;;;;;;;2.07;83.56;101564.47;1791593;80;21191;-58
2021/01/12 03:17:01;;;;;;;36.70;16.90;;;;;;;2.10;83.51;101564.92;1791529;80;21136;-57
2021/01/12 03:19:28;;;;;;;41.25;16.87;;;;;;;2.08;83.66;101562.28;1791622;80;21049;-58
2021/01/12 03:21:56;;;;;;;36.58;15.95;;;;;;;2.10;83.90;101559.22;1791559;79;21051;-57
2021/01/12 03:24:24;;;;;;;38.00;16.85;;;;;;;2.12;83.43;101556.61;1791682;80;21118;-58
2021/01/12 03:26:51;;;;;;;37.90;17.45;;;;;;;2.14;83.49;101558.38;1791632;80;21353;-58
2021/01/12 03:29:19;;;;;;;38.95;17.05;;;;;;;2.18;83.14;101544.77;1791695;80;21493;-58
2021/01/12 03:31:46;;;;;;;39.05;17.10;;;;;;;2.17;82.82;101528.44;1791597;80;21160;-58
2021/01/12 03:34:14;;;;;;;34.40;15.05;;;;;;;2.14;82.25;101514.72;1791721;80;21484;-58
2021/01/12 03:36:42;;;;;;;33.75;15.72;;;;;;;2.11;81.27;101505.89;1789282;80;21188;-58
2021/01/12 03:39:09;;;;;;;35.60;15.88;;;;;;;2.09;81.08;101521.73;1710028;84;21379;-58
2021/01/12 03:41:37;;;;;;;37.58;16.85;;;;;;;2.08;81.42;101521.69;1731034;82;21149;-58
2021/01/12 03:44:05;;;;;;;39.48;15.83;;;;;;;2.09;81.70;101529.66;1739426;82;21566;-58
2021/01/12 03:46:32;;;;;;;37.05;15.75;;;;;;;2.11;81.79;101530.56;1739492;82;21170;-57
2021/01/12 03:49:00;;;;;;;37.70;16.27;;;;;;;2.10;81.63;101543.77;1739508;82;21135;-58
2021/01/12 03:51:28;;;;;;;31.82;14.90;;;;;;;2.10;81.51;101527.89;1739526;82;21603;-57
2021/01/12 03:53:55;;;;;;;35.70;15.83;;;;;;;2.10;81.44;101521.27;1739356;82;21106;-58
2021/01/12 03:56:23;;;;;;;36.00;15.55;;;;;;;2.09;81.72;101511.56;1739548;82;21151;-57
2021/01/12 03:58:51;;;;;;;36.58;15.63;;;;;;;2.08;81.92;101519.05;1739426;82;22277;-58
2021/01/12 04:01:18;;;;;;;34.88;16.07;;;;;;;2.08;82.04;101533.18;1739532;82;21055;-57
2021/01/12 04:03:46;;;;;;;36.03;15.38;;;;;;;2.08;82.26;101535.83;1726895;81;21471;-57
2021/01/12 04:06:15;;;;;;;34.90;15.63;;;;;;;2.11;82.29;101536.31;1755089;81;21901;-57
2021/01/12 04:08:45;;;;;;;34.15;15.23;;;;;;;2.11;82.13;101527.05;1755091;81;21128;-58
2021/01/12 04:11:17;;;;;;;33.85;15.43;;;;;;;2.09;81.87;101528.76;1755128;81;21113;-57
2021/01/12 04:13:45;;;;;;;36.33;15.43;;;;;;;2.07;81.97;101534.47;1755224;81;21144;-58
2021/01/12 04:16:12;;;;;;;33.40;14.60;;;;;;;2.07;82.15;101543.73;1755159;81;21322;-57
2021/01/12 04:18:40;;;;;;;28.85;13.85;;;;;;;2.06;81.95;101552.53;1755180;81;21134;-58
2021/01/12 04:21:07;;;;;;;29.30;13.95;;;;;;;2.07;81.42;101538.44;1755177;81;21227;-56
2021/01/12 04:23:35;;;;;;;30.45;13.43;;;;;;;2.06;81.24;101518.14;1755363;81;21680;-57
2021/01/12 04:26:03;;;;;;;29.67;13.62;;;;;;;2.06;81.50;101520.79;1755173;81;21181;-57
2021/01/12 04:28:31;;;;;;;28.05;12.60;;;;;;;2.06;81.42;101504.91;1755244;81;21307;-58
2021/01/12 04:30:58;;;;;;;27.50;12.80;;;;;;;2.07;81.23;101509.34;1755074;81;21116;-57
2021/01/12 04:33:26;;;;;;;33.83;14.23;;;;;;;2.06;81.11;101511.53;1755173;81;21108;-58
2021/01/12 04:35:54;;;;;;;29.30;13.45;;;;;;;2.04;81.04;101526.50;1755095;81;21133;-57
2021/01/12 04:38:22;;;;;;;30.50;13.70;;;;;;;2.02;81.21;101526.50;1746187;81;21157;-57
2021/01/12 04:40:50;;;;;;;27.13;13.35;;;;;;;2.00;81.40;101505.30;1727191;82;23565;-57
2021/01/12 04:43:17;;;;;;;27.42;13.08;;;;;;;2.00;81.36;101518.53;1743891;82;21070;-57
2021/01/12 04:45:45;;;;;;;29.77;13.03;;;;;;;2.01;81.62;101523.40;1680938;85;21250;-58
2021/01/12 04:48:12;;;;;;;29.63;12.82;;;;;;;2.03;81.33;101519.43;1743916;82;21117;-57
2021/01/12 04:50:40;;;;;;;31.35;13.53;;;;;;;2.02;81.39;101530.88;1743921;82;21077;-58
2021/01/12 04:53:08;;;;;;;26.30;12.80;;;;;;;2.01;81.37;101528.69;1680920;85;21471;-58
2021/01/12 04:55:36;;;;;;;27.95;13.10;;;;;;;1.99;81.17;101540.56;1743893;82;21147;-57
2021/01/12 04:58:03;;;;;;;31.42;14.20;;;;;;;1.96;81.00;101536.55;1743870;82;21157;-57
2021/01/12 05:00:33;;;;;;;32.65;14.47;;;;;;;1.95;81.24;101521.55;1680926;85;21086;-56
2021/01/12 05:03:07;;;;;;;30.48;12.50;;;;;;;1.94;81.46;101519.78;1766647;80;21069;-57
2021/01/12 05:05:38;;;;;;;28.35;14.50;;;;;;;1.95;81.93;101518.00;1791551;79;21204;-57
2021/01/12 05:08:09;;;;;;;33.10;14.53;;;;;;;1.93;81.92;101523.30;1791464;80;21161;-57
2021/01/12 05:10:43;;;;;;;34.73;15.13;;;;;;;1.93;81.87;101532.97;1791369;80;21074;-57
2021/01/12 05:13:12;;;;;;;35.13;15.63;;;;;;;1.91;82.15;101513.13;1791544;80;21062;-58
2021/01/12 05:15:40;;;;;;;34.83;15.65;;;;;;;1.91;82.41;101511.81;1791519;80;21489;-57
2021/01/12 05:18:10;;;;;;;32.55;14.87;;;;;;;1.93;82.28;101486.27;1791575;80;21762;-58
2021/01/12 05:20:50;;;;;;;28.92;12.95;;;;;;;1.93;82.30;101494.20;1791495;80;21550;-57
2021/01/12 05:23:23;;;;;;;29.98;13.88;;;;;;;1.91;81.90;101495.03;1791624;80;21153;-59
2021/01/12 05:25:53;;;;;;;34.73;13.80;;;;;;;1.90;81.63;101494.16;1791482;80;21057;-58
2021/01/12 05:28:20;;;;;;;29.98;14.05;;;;;;;1.88;81.62;101482.69;1791638;80;21221;-57
2021/01/12 05:30:48;;;;;;;31.93;14.28;;;;;;;1.88;81.95;101489.30;1791476;80;21201;-57
2021/01/12 05:33:18;;;;;;;32.65;14.18;;;;;;;1.86;81.81;101479.09;1791463;79;21174;-56
2021/01/12 05:35:49;;;;;;;34.43;14.18;;;;;;;1.86;81.52;101484.39;1791447;80;21106;-57
2021/01/12 05:38:28;;;;;;;35.68;14.87;;;;;;;1.86;81.98;101496.29;1775578;79;21059;-58
2021/01/12 05:40:58;;;;;;;40.63;15.00;;;;;;;1.89;82.29;101492.39;1770834;81;21107;-57
2021/01/12 05:43:39;;;;;;;38.67;15.60;;;;;;;1.86;82.25;101493.23;1770757;81;21425;-56
2021/01/12 05:46:09;;;;;;;40.05;15.53;;;;;;;1.86;82.13;101482.65;1709946;84;21078;-58
2021/01/12 05:48:40;;;;;;;45.35;16.27;;;;;;;1.87;82.20;101480.87;1731142;82;21086;-56
2021/01/12 05:51:09;;;;;;;35.03;15.10;;;;;;;1.85;81.71;101460.14;1739339;82;21189;-57
2021/01/12 05:53:54;;;;;;;36.73;14.70;;;;;;;1.84;81.76;101446.46;1739413;82;21099;-56
2021/01/12 05:56:23;;;;;;;34.25;15.32;;;;;;;1.83;81.58;101440.30;1739425;82;21217;-57
2021/01/12 05:58:52;;;;;;;35.78;15.60;;;;;;;1.82;81.30;101455.72;1739420;82;21142;-58
2021/01/12 06:01:43;;;;;;;35.17;14.83;;;;;;;1.81;81.34;101433.20;1739424;82;21488;-58
2021/01/12 06:04:12;;;;;;;34.92;14.50;;;;;;;1.82;81.45;101454.81;1739311;81;21059;-57
2021/01/12 06:06:45;;;;;;;31.35;13.58;;;;;;;1.79;81.66;101438.91;1739516;82;21483;-57
2021/01/12 06:09:13;;;;;;;32.65;14.78;;;;;;;1.79;81.41;101445.52;1739340;82;21195;-57
2021/01/12 06:11:43;;;;;;;33.08;14.63;;;;;;;1.78;81.46;101441.11;1739403;81;21063;-57
2021/01/12 06:14:14;;;;;;;32.15;14.25;;;;;;;1.73;81.46;101454.26;1739422;81;21209;-56
2021/01/12 06:16:44;;;;;;;33.48;13.88;;;;;;;1.73;81.49;101458.67;1739473;82;21601;-56
2021/01/12 06:19:23;;;;;;;30.45;14.23;;;;;;;1.72;81.74;101452.48;1739427;82;21417;-57
2021/01/12 06:22:02;;;;;;;31.42;14.87;;;;;;;1.73;82.09;101475.41;1739479;82;21142;-57
2021/01/12 06:24:45;;;;;;;34.95;14.18;;;;;;;1.79;82.03;101478.58;1739258;82;21095;-57
2021/01/12 06:27:19;;;;;;;31.60;14.07;;;;;;;1.80;81.79;101489.61;1739417;82;21177;-57
2021/01/12 06:29:48;;;;;;;31.87;13.18;;;;;;;1.82;81.49;101491.84;1738648;82;21110;-56
2021/01/12 06:32:19;;;;;;;27.05;13.22;;;;;;;1.84;81.49;101483.48;1739390;81;21200;-57
2021/01/12 06:34:53;;;;;;;29.72;12.05;;;;;;;1.86;81.14;101476.45;1739419;82;21441;-56
2021/01/12 06:37:22;;;;;;;27.13;11.78;;;;;;;1.87;81.04;101479.55;1744904;81;21146;-57
2021/01/12 06:39:51;;;;;;;28.75;12.20;;;;;;;1.90;81.20;101486.23;1754071;81;20964;-56
2021/01/12 06:42:29;;;;;;;27.02;11.68;;;;;;;1.92;81.10;101475.23;1751108;81;21483;-57
2021/01/12 06:44:58;;;;;;;26.23;11.65;;;;;;;1.95;81.22;101471.72;1753832;81;21048;-56
2021/01/12 06:47:30;;;;;;;29.57;12.95;;;;;;;1.97;81.48;101493.36;1754121;81;21399;-57
2021/01/12 06:50:11;;;;;;;31.42;12.68;;;;;;;1.99;81.04;101478.40;1753953;81;21539;-56
2021/01/12 06:52:50;;;;;;;34.20;13.70;;;;;;;2.01;81.29;101466.52;1754015;81;21070;-58
2021/01/12 06:55:19;;;;;;;29.27;12.68;;;;;;;2.07;81.43;101469.66;1753901;81;21058;-56
2021/01/12 06:57:51;;;;;;;25.10;11.65;;;;;;;2.09;81.65;101474.11;1754055;81;21074;-57
2021/01/12 07:00:21;;;;;;;28.50;12.47;;;;;;;2.12;81.09;101477.23;1753901;81;22079;-59
2021/01/12 07:02:57;;;;;;;29.37;12.68;;;;;;;2.14;81.29;101474.17;1753467;81;21523;-57
2021/01/12 07:05:38;;;;;;;31.75;12.73;;;;;;;2.18;81.29;101465.81;1750097;81;21133;-57
2021/01/12 07:08:09;;;;;;;26.23;12.65;;;;;;;2.18;81.15;101440.25;1747911;82;21560;-58
2021/01/12 07:10:45;;;;;;;30.30;12.40;;;;;;;2.18;80.99;101422.16;1748099;82;21158;-58
2021/01/12 07:13:14;;;;;;;26.15;11.63;;;;;;;2.17;80.73;101411.12;1748074;82;21122;-57
2021/01/12 07:15:49;;;;;;;25.48;11.22;;;;;;;2.16;80.64;101418.19;1748023;82;21129;-57
2021/01/12 07:18:22;;;;;;;23.27;10.88;;;;;;;2.14;80.45;101402.73;1745184;82;21110;-56
2021/01/12 07:20:50;;;;;;;23.20;11.18;;;;;;;2.14;80.45;101386.86;1748100;82;21067;-60
2021/01/12 07:23:19;;;;;;;29.77;11.03;;;;;;;2.16;80.79;101375.86;1745077;82;21074;-57
2021/01/12 07:25:47;;;;;;;23.95;10.45;;;;;;;2.18;80.87;101373.20;1748116;82;21216;-58
2021/01/12 07:28:18;;;;;;;21.87;9.45;;;;;;;2.22;79.66;101394.88;1747924;82;21195;-57
2021/01/12 07:30:51;;;;;;;20.75;8.80;;;;;;;2.21;78.73;101369.26;1748068;82;21126;-58
2021/01/12 07:33:23;;;;;;;24.45;9.88;;;;;;;2.21;78.36;101391.33;1748086;82;21166;-57
2021/01/12 07:35:54;;;;;;;19.57;8.53;;;;;;;2.20;78.57;101384.69;1748107;82;21059;-58
2021/01/12 07:38:26;;;;;;;19.02;8.83;;;;;;;2.21;78.07;101387.78;1714529;82;21340;-58
2021/01/12 07:40:56;;;;;;;17.02;8.20;;;;;;;2.21;77.81;101403.23;1739202;82;21136;-56
2021/01/12 07:43:24;;;;;;;16.93;8.23;;;;;;;2.25;77.97;101413.42;1739335;82;21181;-57
2021/01/12 07:45:54;;;;;;;19.17;7.58;;;;;;;2.28;77.60;101410.81;1739416;82;21180;-57
2021/01/12 07:48:22;;;;;;;20.10;8.50;;;;;;;2.33;77.52;101404.25;1738118;82;21127;-58
2021/01/12 07:50:51;;;;;;;20.10;7.78;;;;;;;2.37;77.64;101402.08;1777950;80;21144;-62
2021/01/12 07:53:19;;;;;;;17.45;8.55;;;;;;;2.43;77.71;101410.06;1773822;80;21144;-63
2021/01/12 07:55:48;;;;;;;19.48;7.97;;;;;;;2.48;77.18;101365.98;1766546;81;21049;-63
2021/01/12 07:58:17;;;;;;;22.00;8.83;;;;;;;2.51;76.61;101343.95;1771661;81;21120;-65
2021/01/12 08:00:48;;;;;;;19.00;9.28;;;;;;;2.55;76.63;101370.48;1766742;81;21153;-63
2021/01/12 08:03:26;;;;;;;22.35;8.55;;;;;;;2.56;76.84;101368.70;1763113;81;22345;-63
2021/01/12 08:06:02;;;;;;;21.12;8.55;;;;;;;2.55;76.48;101367.83;1771659;80;21156;-62
2021/01/12 08:08:30;;;;;;;21.65;9.43;;;;;;;2.53;76.73;101369.55;1761699;81;21501;-65
2021/01/12 08:10:58;;;;;;;21.17;9.73;;;;;;;2.54;77.22;101373.09;1771894;80;21053;-65
2021/01/12 08:13:25;;;;;;;20.62;8.50;;;;;;;2.53;76.76;101367.36;1766721;81;21076;-62
2021/01/12 08:15:54;;;;;;;18.30;9.30;;;;;;;2.51;76.98;101354.09;1766725;81;21368;-62
2021/01/12 08:18:22;;;;;;;22.60;9.85;;;;;;;2.48;76.02;101344.81;1771988;80;21182;-61
2021/01/12 08:20:55;;;;;;;25.20;10.20;;;;;;;2.48;76.19;101365.98;1786954;80;21590;-63
2021/01/12 08:23:23;;;;;;;23.10;10.38;;;;;;;2.52;76.03;101374.39;1787091;80;21156;-61
2021/01/12 08:25:50;;;;;;;24.65;10.35;;;;;;;2.54;76.41;101366.06;1734659;82;21186;-61
2021/01/12 08:28:19;;;;;;;27.25;11.33;;;;;;;2.56;76.14;101351.07;1741924;82;21866;-62
2021/01/12 08:30:46;;;;;;;22.65;10.53;;;;;;;2.54;76.16;101343.55;1741603;81;21185;-64
2021/01/12 08:33:27;;;;;;;24.70;10.53;;;;;;;2.55;75.42;101364.28;1735530;82;21125;-62
2021/01/12 08:36:12;;;;;;;24.70;10.98;;;;;;;2.51;75.75;101372.63;1747693;82;21122;-62
2021/01/12 08:38:42;;;;;;;28.87;11.33;;;;;;;2.51;76.88;101339.53;1735150;81;21063;-63
2021/01/12 08:41:10;;;;;;;23.00;10.45;;;;;;;2.51;77.51;101331.59;1733384;82;21406;-62
2021/01/12 08:43:39;;;;;;;26.10;10.15;;;;;;;2.52;77.91;101342.63;1733840;82;21292;-61
2021/01/12 08:46:06;;;;;;;22.90;9.50;;;;;;;2.52;77.18;101341.30;1733815;82;21182;-61
2021/01/12 08:48:34;;;;;;;26.55;10.85;;;;;;;2.49;77.60;101349.23;1739092;81;21149;-63
2021/01/12 08:51:16;;;;;;;28.42;11.05;;;;;;;2.42;77.54;101329.75;1725296;82;21456;-63
2021/01/12 08:53:49;;;;;;;24.20;10.55;;;;;;;2.43;78.05;101326.27;1725606;82;21516;-64
2021/01/12 08:56:16;;;;;;;27.65;10.68;;;;;;;2.48;78.42;101328.92;1739548;82;21188;-62
2021/01/12 08:58:44;;;;;;;26.25;10.93;;;;;;;2.50;78.48;101332.47;1740021;82;21165;-63
2021/01/12 09:01:13;;;;;;;23.47;10.58;;;;;;;2.54;78.65;101328.09;1739854;82;21129;-63
2021/01/12 09:03:42;;;;;;;24.30;10.10;;;;;;;2.56;77.94;101323.69;1714310;82;21085;-62
2021/01/12 09:06:19;;;;;;;24.43;11.78;;;;;;;2.58;78.06;101304.31;1709255;84;21558;-63
2021/01/12 09:08:47;;;;;;;28.40;11.18;;;;;;;2.61;78.52;101289.32;1754962;81;21070;-61
2021/01/12 09:11:15;;;;;;;22.73;10.23;;;;;;;2.63;78.34;101299.48;1755106;81;21154;-62
2021/01/12 09:13:45;;;;;;;26.15;10.45;;;;;;;2.67;78.42;101280.08;1702136;84;21185;-60
2021/01/12 09:16:18;;;;;;;26.25;10.32;;;;;;;2.68;78.29;101287.15;1718895;82;21649;-62
2021/01/12 09:18:46;;;;;;;25.10;10.75;;;;;;;2.70;78.13;101270.83;1691712;84;21382;-62
2021/01/12 09:21:14;;;;;;;31.48;11.40;;;;;;;2.67;77.94;101243.02;1723149;83;21133;-61
2021/01/12 09:23:42;;;;;;;23.50;10.13;;;;;;;2.69;78.21;101237.28;1692823;83;21066;-63
2021/01/12 09:26:10;;;;;;;22.67;10.40;;;;;;;2.74;77.95;101256.72;1723110;83;21077;-63
2021/01/12 09:28:39;;;;;;;22.80;10.45;;;;;;;2.75;77.73;101263.79;1692754;84;21090;-62
2021/01/12 09:31:17;;;;;;;29.63;10.82;;;;;;;2.75;77.87;101259.82;1723168;83;21636;-62
2021/01/12 09:33:49;;;;;;;24.12;10.00;;;;;;;2.72;77.58;101259.80;1709807;83;21153;-64
2021/01/12 09:36:18;;;;;;;26.25;10.23;;;;;;;2.73;77.76;101273.48;1723193;83;21086;-62
2021/01/12 09:38:53;;;;;;;30.25;10.45;;;;;;;2.75;78.15;101268.22;1711094;83;21144;-62
2021/01/12 09:41:23;;;;;;;22.82;10.10;;;;;;;2.77;77.73;101283.25;1711357;83;21082;-63
2021/01/12 09:43:52;;;;;;;23.90;10.13;;;;;;;2.75;78.36;101298.22;1711220;83;22245;-63
2021/01/12 09:46:20;;;;;;;23.47;9.98;;;;;;;2.71;78.81;101310.58;1705592;84;21580;-62
2021/01/12 09:48:48;;;;;;;24.00;10.35;;;;;;;2.64;78.58;101293.31;1740991;82;21133;-62
2021/01/12 09:51:16;;;;;;;23.20;10.63;;;;;;;2.60;78.92;101302.11;1705523;84;21153;-62
2021/01/12 09:53:45;;;;;;;23.55;9.75;;;;;;;2.55;79.28;101297.67;1705535;84;21146;-63
2021/01/12 09:56:15;;;;;;;29.72;10.55;;;;;;;2.53;79.42;101296.75;1707964;82;21379;-62
2021/01/12 09:58:43;;;;;;;27.07;9.78;;;;;;;2.52;79.44;101287.03;1766497;81;21152;-63
2021/01/12 10:01:13;;;;;;;27.80;10.48;;;;;;;2.50;79.19;101298.05;1766482;81;21046;-62
2021/01/12 10:03:42;;;;;;;26.33;10.43;;;;;;;2.45;79.00;101272.00;1766191;81;21151;-62
2021/01/12 10:06:23;;;;;;;24.63;10.30;;;;;;;2.44;79.76;101280.81;1771492;80;21065;-64
2021/01/12 10:08:51;;;;;;;24.25;10.00;;;;;;;2.45;79.73;101260.09;1771710;80;22334;-62
2021/01/12 10:11:22;;;;;;;28.27;11.40;;;;;;;2.42;80.13;101222.56;1711972;81;21081;-63
2021/01/12 10:13:53;;;;;;;29.63;11.80;;;;;;;2.43;80.39;101185.98;1711417;81;21573;-63
2021/01/12 10:16:23;;;;;;;24.20;10.55;;;;;;;2.53;80.71;101164.84;1771780;81;21085;-62
2021/01/12 10:18:52;;;;;;;21.45;9.55;;;;;;;2.61;80.18;101160.91;1766636;81;21093;-62
2021/01/12 10:21:19;;;;;;;23.87;10.45;;;;;;;2.62;79.47;101183.41;1771810;81;21287;-62
2021/01/12 10:23:48;;;;;;;23.00;10.40;;;;;;;2.62;79.97;101181.22;1766529;81;21171;-67
2021/01/12 10:26:18;;;;;;;22.27;10.82;;;;;;;2.64;80.20;101170.19;1771808;81;21104;-62
2021/01/12 10:28:47;;;;;;;22.82;10.53;;;;;;;2.68;80.51;101166.67;1766561;81;21136;-62
2021/01/12 10:31:19;;;;;;;31.05;11.57;;;;;;;2.75;80.36;101159.19;1736361;81;21144;-63
2021/01/12 10:33:48;;;;;;;24.85;10.25;;;;;;;2.83;80.71;101140.26;1771708;81;21190;-63
2021/01/12 10:36:18;;;;;;;23.57;10.15;;;;;;;2.94;80.33;101151.31;1766711;81;21584;-62
2021/01/12 10:38:46;;;;;;;25.68;11.40;;;;;;;2.97;79.75;101155.30;1787529;80;21154;-62
2021/01/12 10:41:14;;;;;;;21.82;10.13;;;;;;;2.98;79.24;101141.16;1788267;80;21192;-64
2021/01/12 10:43:41;;;;;;;27.60;11.20;;;;;;;3.00;79.17;101131.48;1787863;80;21522;-62
2021/01/12 10:46:10;;;;;;;26.27;11.45;;;;;;;2.99;79.01;101141.64;1734373;80;22725;-62
2021/01/12 10:48:40;;;;;;;31.57;11.68;;;;;;;2.99;79.01;101132.37;1710755;80;21209;-63
2021/01/12 10:51:08;;;;;;;31.02;11.30;;;;;;;2.98;79.48;101138.09;1788053;80;21078;-63
2021/01/12 10:53:36;;;;;;;25.30;10.58;;;;;;;2.99;79.19;101125.28;1783930;80;21165;-63
2021/01/12 10:56:05;;;;;;;24.20;10.98;;;;;;;2.98;79.20;101114.67;1775544;80;21577;-63
2021/01/12 10:58:33;;;;;;;24.37;10.68;;;;;;;3.01;79.50;101104.11;1705186;83;21383;-63
2021/01/12 11:01:01;;;;;;;24.47;10.43;;;;;;;3.01;79.23;101101.47;1739202;82;21248;-62
2021/01/12 11:03:30;;;;;;;25.68;10.43;;;;;;;2.97;79.04;101094.37;1739851;81;21090;-63
2021/01/12 11:05:57;;;;;;;27.55;11.68;;;;;;;2.90;79.25;101084.22;1745390;81;21053;-63
2021/01/12 11:08:26;;;;;;;23.98;10.53;;;;;;;2.83;79.79;101060.81;1782367;80;21134;-62
2021/01/12 11:10:54;;;;;;;23.12;10.55;;;;;;;2.82;79.94;101064.34;1782146;80;22390;-62
2021/01/12 11:13:22;;;;;;;26.10;10.98;;;;;;;2.82;79.23;101064.34;1786890;80;21122;-62
2021/01/12 11:15:51;;;;;;;24.75;11.35;;;;;;;2.81;79.10;101062.58;1776073;80;21059;-63
2021/01/12 11:18:19;;;;;;;27.73;10.93;;;;;;;2.77;79.41;101058.16;1774728;80;21050;-62
2021/01/12 11:20:49;;;;;;;27.35;11.48;;;;;;;2.74;79.33;101075.33;1763903;80;21146;-62
2021/01/12 11:23:17;;;;;;;25.90;11.20;;;;;;;2.71;80.00;101071.36;1762041;80;21355;-62
2021/01/12 11:25:45;;;;;;;28.50;12.05;;;;;;;2.66;79.83;101066.08;1787805;80;21168;-63
2021/01/12 11:28:13;;;;;;;31.77;11.45;;;;;;;2.65;80.23;101063.41;1763506;80;21161;-63
2021/01/12 11:30:41;;;;;;;28.20;11.73;;;;;;;2.61;80.28;101043.97;1766930;80;21057;-62